Patagonia 100 — ZDPD4 — position and weather

sailwx.info

Track history (hours):
 
Tides and Currents Weather Stations Pressure Air Temp Water Temp Dewpoint Dewpoint Depression Visibility Wind Speed Wind Dir Waves Ship Positions

Patagonia 100

Last reported at 2018-Apr-11 16:39 UTC. Time now 2018-Jun-19 02:52 UTC.
Position N 37°28' W 001°03'.
Warning: this ship's position is months out of date.

Length 80 m; draft 5.4 m.

Type: Tanker. MMSI: 236659000.

Date/timePositionNaut miles runAvg speedWind from/ knotsBaromVisibWave heightAir tempDewpointWater temp
2018-Apr-11 16:39N 37°28' W 001°03'1 3.5
2018-Apr-11 16:28N 37°28' W 001°02'2 3.5
2018-Apr-11 16:00N 37°29' W 000°60'2 3.4
2018-Apr-11 15:30N 37°30' W 000°58'2 3.3
2018-Apr-11 15:00N 37°30' W 000°56'1 2.9
2018-Apr-11 14:30N 37°30' W 000°54'2 3.0
2018-Apr-11 14:00N 37°30' W 000°52'2 3.0
2018-Apr-11 13:30N 37°31' W 000°50'1 2.8
2018-Apr-11 13:00N 37°31' W 000°49'1 2.8
2018-Apr-11 12:30N 37°31' W 000°47'1 2.9
2018-Apr-11 12:00N 37°32' W 000°45'1 3.0
2018-Apr-11 11:30N 37°32' W 000°43'2 3.2
2018-Apr-11 11:00N 37°32' W 000°41'2 3.7
2018-Apr-11 10:24N 37°32' W 000°39'2 3.9
2018-Apr-11 10:00N 37°33' W 000°37'2 3.6
2018-Apr-11 09:29N 37°34' W 000°35'2 3.6
2018-Apr-11 08:59N 37°36' W 000°34'2 4.2
2018-Apr-11 08:30N 37°37' W 000°33'3 5.8
2018-Apr-11 07:59N 37°40' W 000°31'3 7.0
2018-Apr-11 07:30N 37°43' W 000°29'4 6.8
2018-Apr-11 06:57N 37°47' W 000°28'3 7.1
2018-Apr-11 06:30N 37°50' W 000°26'4 7.5
2018-Apr-11 06:00N 37°53' W 000°24'4 7.8
2018-Apr-11 05:30N 37°57' W 000°23'4 7.8
2018-Apr-11 05:00N 38°00' W 000°21'215 5.8
2018-Apr-09 15:48N 41°05' E 002°03'3 8.3
2018-Apr-09 15:30N 41°07' E 002°04'4 8.6
2018-Apr-09 15:01N 41°11' E 002°07'5 9.0
2018-Apr-09 14:31N 41°15' E 002°10'4 8.1
2018-Apr-09 14:01N 41°19' E 002°10'2 3.2
2018-Apr-09 13:30N 41°21' E 002°10'0 0.0
2018-Apr-09 12:58N 41°21' E 002°10'0 0.0
2018-Apr-09 10:40N 41°21' E 002°10'0 0.0
2018-Apr-09 10:22N 41°21' E 002°10'0 0.0
2018-Apr-09 09:49N 41°21' E 002°10'0 0.0
2018-Apr-09 09:19N 41°21' E 002°10'0 1.3
2018-Apr-09 09:00N 41°20' E 002°09'0 0.2
2018-Apr-09 08:29N 41°20' E 002°09'0 0.0
2018-Apr-09 07:59N 41°20' E 002°09'0 0.0
2018-Apr-09 07:29N 41°20' E 002°09'0 0.0
2018-Apr-09 06:59N 41°20' E 002°09'0 0.0
2018-Apr-09 06:29N 41°20' E 002°09'0 0.0
2018-Apr-09 05:59N 41°20' E 002°09'0 0.0
2018-Apr-09 05:29N 41°20' E 002°09'0 0.0
2018-Apr-09 04:59N 41°20' E 002°09'0 0.0
2018-Apr-09 04:29N 41°20' E 002°09'0 0.0
2018-Apr-09 03:59N 41°20' E 002°09'0 0.0
2018-Apr-09 03:29N 41°20' E 002°09'0 0.0
2018-Apr-09 02:59N 41°20' E 002°09'0 0.0
2018-Apr-09 02:29N 41°20' E 002°09'0 0.0
2018-Apr-09 01:59N 41°20' E 002°09'0 0.0
2018-Apr-09 01:29N 41°20' E 002°09'0 0.0
2018-Apr-09 00:59N 41°20' E 002°09'0 0.0
2018-Apr-09 00:29N 41°20' E 002°09'0 0.0
2018-Apr-08 23:59N 41°20' E 002°09'0 0.0
2018-Apr-08 23:29N 41°20' E 002°09'0 0.0
2018-Apr-08 22:59N 41°20' E 002°09'0 0.0
2018-Apr-08 22:29N 41°20' E 002°09'0 0.0
2018-Apr-08 21:59N 41°20' E 002°09'0 0.0
2018-Apr-08 21:29N 41°20' E 002°09'0 0.0
2018-Apr-08 20:59N 41°20' E 002°09'0 0.0
2018-Apr-08 20:29N 41°20' E 002°09'0 0.0
2018-Apr-08 19:59N 41°20' E 002°09'0 0.0
2018-Apr-08 19:29N 41°20' E 002°09'0 0.0
2018-Apr-08 18:59N 41°20' E 002°09'0 0.0
2018-Apr-08 18:29N 41°20' E 002°09'0 0.0
2018-Apr-08 17:59N 41°20' E 002°09'0 0.0
2018-Apr-08 17:29N 41°20' E 002°09'0 0.0
2018-Apr-08 16:59N 41°20' E 002°09'0 0.0
2018-Apr-08 16:29N 41°20' E 002°09'0 0.0
2018-Apr-08 15:56N 41°20' E 002°09'0 0.0
2018-Apr-08 15:29N 41°20' E 002°09'0 0.0
2018-Apr-08 14:59N 41°20' E 002°09'0 0.0
2018-Apr-08 14:29N 41°20' E 002°09'0 0.0
2018-Apr-08 13:59N 41°20' E 002°09'0 0.0
2018-Apr-08 13:29N 41°20' E 002°09'0 0.0
2018-Apr-08 12:59N 41°20' E 002°09'0 0.0
2018-Apr-08 12:29N 41°20' E 002°09'0 0.0
2018-Apr-08 11:59N 41°20' E 002°09'0 0.0
2018-Apr-08 11:29N 41°20' E 002°09'0 0.0
2018-Apr-08 10:59N 41°20' E 002°09'0 0.0
2018-Apr-08 10:29N 41°20' E 002°09'0 0.0
2018-Apr-08 09:59N 41°20' E 002°09'0 0.0
2018-Apr-08 09:29N 41°20' E 002°09'0 0.0
2018-Apr-08 08:59N 41°20' E 002°09'0 0.0
2018-Apr-08 08:29N 41°20' E 002°09'0 0.0
2018-Apr-08 07:59N 41°20' E 002°09'0 0.0
2018-Apr-08 07:29N 41°20' E 002°09'0 0.0
2018-Apr-08 06:59N 41°20' E 002°09'0 0.0
2018-Apr-08 06:29N 41°20' E 002°09'0 0.0
2018-Apr-08 05:59N 41°20' E 002°09'0 0.0
2018-Apr-08 05:29N 41°20' E 002°09'0 0.0
2018-Apr-08 04:59N 41°20' E 002°09'0 0.0
2018-Apr-08 04:29N 41°20' E 002°09'0 0.0
2018-Apr-08 03:59N 41°20' E 002°09'0 0.0
2018-Apr-08 03:29N 41°20' E 002°09'0 0.0
2018-Apr-08 02:59N 41°20' E 002°09'0 0.0
2018-Apr-08 02:29N 41°20' E 002°09'0 0.0
2018-Apr-08 01:59N 41°20' E 002°09'0 0.0
2018-Apr-08 01:29N 41°20' E 002°09'0 0.0
2018-Apr-08 00:59N 41°20' E 002°09'0 0.0
2018-Apr-08 00:29N 41°20' E 002°09'0 0.0
2018-Apr-07 23:59N 41°20' E 002°09'0 0.0
2018-Apr-07 23:29N 41°20' E 002°09'0 0.0
2018-Apr-07 22:59N 41°20' E 002°09'0 0.0
2018-Apr-07 22:29N 41°20' E 002°09'0 0.0
2018-Apr-07 21:59N 41°20' E 002°09'0 0.0
2018-Apr-07 21:29N 41°20' E 002°09'0 0.0
2018-Apr-07 20:59N 41°20' E 002°09'0 0.0
2018-Apr-07 20:29N 41°20' E 002°09'0 0.0
2018-Apr-07 19:59N 41°20' E 002°09'0 0.0
2018-Apr-07 19:29N 41°20' E 002°09'0 0.0
2018-Apr-07 18:59N 41°20' E 002°09'0 0.0
2018-Apr-07 18:29N 41°20' E 002°09'0 0.0
2018-Apr-07 17:59N 41°20' E 002°09'0 0.0
2018-Apr-07 17:02N 41°20' E 002°09'0 0.0
2018-Apr-07 16:59N 41°20' E 002°09'0 0.0
2018-Apr-07 16:29N 41°20' E 002°09'0 0.0
2018-Apr-07 15:59N 41°20' E 002°09'0 0.0
2018-Apr-07 15:29N 41°20' E 002°09'0 0.0
2018-Apr-07 14:59N 41°20' E 002°09'0 0.0
2018-Apr-07 14:29N 41°20' E 002°09'0 0.0
2018-Apr-07 13:59N 41°20' E 002°09'0 0.0
2018-Apr-07 13:29N 41°20' E 002°09'0 0.0
2018-Apr-07 12:59N 41°20' E 002°09'0 0.0
2018-Apr-07 12:29N 41°20' E 002°09'0 0.0
2018-Apr-07 11:59N 41°20' E 002°09'0 0.0
2018-Apr-07 11:29N 41°20' E 002°09'0 0.0
2018-Apr-07 10:59N 41°20' E 002°09'0 0.0
2018-Apr-07 10:29N 41°20' E 002°09'0 0.0
2018-Apr-07 09:59N 41°20' E 002°09'0 0.0
2018-Apr-07 09:29N 41°20' E 002°09'0 0.0
2018-Apr-07 08:59N 41°20' E 002°09'0 0.0
2018-Apr-07 08:29N 41°20' E 002°09'0 0.0
2018-Apr-07 07:59N 41°20' E 002°09'0 0.0
2018-Apr-07 07:29N 41°20' E 002°09'0 0.2
2018-Apr-07 06:59N 41°20' E 002°09'0 0.0
2018-Apr-07 06:29N 41°20' E 002°09'0 0.0
2018-Apr-07 05:59N 41°20' E 002°09'0 0.0
2018-Apr-07 05:29N 41°20' E 002°09'0 0.0
2018-Apr-07 04:59N 41°20' E 002°09'0 0.0
2018-Apr-07 04:29N 41°20' E 002°09'0 0.0
2018-Apr-07 03:59N 41°20' E 002°09'0 0.0
2018-Apr-07 03:29N 41°20' E 002°09'0 0.0
2018-Apr-07 02:56N 41°20' E 002°09'0 0.0
2018-Apr-07 02:29N 41°20' E 002°09'0 0.0
2018-Apr-07 01:59N 41°20' E 002°09'0 0.0
2018-Apr-07 01:29N 41°20' E 002°09'0 0.0
2018-Apr-07 00:59N 41°20' E 002°09'0 0.0
2018-Apr-07 00:26N 41°20' E 002°09'0 0.0
2018-Apr-06 23:59N 41°20' E 002°09'0 0.0
2018-Apr-06 23:29N 41°20' E 002°09'0 0.0
2018-Apr-06 22:59N 41°20' E 002°09'0 0.0
2018-Apr-06 22:29N 41°20' E 002°09'0 0.0
2018-Apr-06 21:56N 41°20' E 002°09'0 0.0
2018-Apr-06 21:29N 41°20' E 002°09'0 0.0
2018-Apr-06 20:56N 41°20' E 002°09'0 0.1
2018-Apr-06 20:29N 41°20' E 002°09'0 0.0
2018-Apr-06 19:59N 41°20' E 002°09'0 0.0
2018-Apr-06 19:29N 41°20' E 002°09'0 0.0
2018-Apr-06 18:59N 41°20' E 002°09'0 0.0
2018-Apr-06 18:29N 41°20' E 002°09'0 0.0
2018-Apr-06 17:59N 41°20' E 002°09'0 0.0
2018-Apr-06 17:29N 41°20' E 002°09'0 0.0
2018-Apr-06 16:59N 41°20' E 002°09'0 0.0
2018-Apr-06 16:29N 41°20' E 002°09'0 0.0
2018-Apr-06 15:59N 41°20' E 002°09'0 0.0
2018-Apr-06 15:29N 41°20' E 002°09'0 0.0
2018-Apr-06 14:59N 41°20' E 002°09'0 0.0
2018-Apr-06 14:29N 41°20' E 002°09'0 0.0
2018-Apr-06 13:56N 41°20' E 002°09'0 0.0
2018-Apr-06 13:29N 41°20' E 002°09'0 0.0
2018-Apr-06 12:59N 41°20' E 002°09'0 0.0
2018-Apr-06 12:29N 41°20' E 002°09'0 0.0
2018-Apr-06 11:59N 41°20' E 002°09'0 0.0
2018-Apr-06 11:29N 41°20' E 002°09'0 0.0
2018-Apr-06 10:59N 41°20' E 002°09'0 0.0
2018-Apr-06 10:29N 41°20' E 002°09'0 0.0
2018-Apr-06 09:59N 41°20' E 002°09'0 0.0
2018-Apr-06 09:29N 41°20' E 002°09'0 0.0
2018-Apr-06 08:59N 41°20' E 002°09'0 0.0
2018-Apr-06 08:29N 41°20' E 002°09'0 0.0
2018-Apr-06 07:59N 41°20' E 002°09'0 0.0
2018-Apr-06 07:29N 41°20' E 002°09'0 0.0
2018-Apr-06 06:59N 41°20' E 002°09'0 0.0
2018-Apr-06 06:29N 41°20' E 002°09'0 0.0
2018-Apr-06 05:59N 41°20' E 002°09'0 0.0
2018-Apr-06 05:29N 41°20' E 002°09'0 0.0
2018-Apr-06 04:59N 41°20' E 002°09'0 0.0
2018-Apr-06 04:29N 41°20' E 002°09'0 0.0
2018-Apr-06 03:59N 41°20' E 002°09'0 0.0
2018-Apr-06 03:29N 41°20' E 002°09'0 0.0
2018-Apr-06 02:59N 41°20' E 002°09'0 0.0
2018-Apr-06 02:29N 41°20' E 002°09'0 0.0
2018-Apr-06 01:59N 41°20' E 002°09'0 0.0
2018-Apr-06 01:29N 41°20' E 002°09'0 0.0
2018-Apr-06 00:59N 41°20' E 002°09'0 0.0
2018-Apr-06 00:29N 41°20' E 002°09'0 0.0
2018-Apr-05 23:59N 41°20' E 002°09'0 0.0
2018-Apr-05 23:29N 41°20' E 002°09'0 0.0
2018-Apr-05 22:59N 41°20' E 002°09'0 0.0
2018-Apr-05 22:29N 41°20' E 002°09'0 0.0
2018-Apr-05 21:59N 41°20' E 002°09'0 0.0
2018-Apr-05 21:29N 41°20' E 002°09'0 0.0
2018-Apr-05 20:59N 41°20' E 002°09'0 0.0
2018-Apr-05 20:29N 41°20' E 002°09'0 0.0
2018-Apr-05 19:59N 41°20' E 002°09'0 0.0
2018-Apr-05 19:29N 41°20' E 002°09'0 0.0
2018-Apr-05 18:59N 41°20' E 002°09'0 0.0
2018-Apr-05 18:29N 41°20' E 002°09'0 0.0
2018-Apr-05 17:59N 41°20' E 002°09'0 0.0
2018-Apr-05 17:29N 41°20' E 002°09'0 0.0
2018-Apr-05 16:59N 41°20' E 002°09'0 0.0
2018-Apr-05 16:29N 41°20' E 002°09'0 0.0
2018-Apr-05 15:59N 41°20' E 002°09'0 0.0
2018-Apr-05 15:29N 41°20' E 002°09'0 0.0
2018-Apr-05 14:59N 41°20' E 002°09'0 0.0
2018-Apr-05 14:29N 41°20' E 002°09'0 0.0
2018-Apr-05 13:59N 41°20' E 002°09'0 0.0
2018-Apr-05 13:29N 41°20' E 002°09'0 0.0
2018-Apr-05 12:59N 41°20' E 002°09'0 0.0
2018-Apr-05 12:29N 41°20' E 002°09'0 0.0
2018-Apr-05 11:59N 41°20' E 002°09'0 0.0
2018-Apr-05 11:29N 41°20' E 002°09'0 0.0
2018-Apr-05 10:59N 41°20' E 002°09'0 0.0
2018-Apr-05 10:30N 41°20' E 002°09'0 0.0
2018-Apr-05 10:00N 41°20' E 002°09'0 0.0
2018-Apr-05 09:30N 41°20' E 002°09'0 0.0
2018-Apr-05 09:00N 41°20' E 002°09'0 0.0
2018-Apr-05 08:30N 41°20' E 002°09'0 0.0
2018-Apr-05 08:00N 41°20' E 002°09'0 0.0
2018-Apr-05 07:30N 41°20' E 002°09'0 0.0
2018-Apr-05 07:00N 41°20' E 002°09'0 0.0
2018-Apr-05 06:30N 41°20' E 002°09'0 0.0
2018-Apr-05 06:00N 41°20' E 002°09'0 0.0
2018-Apr-05 05:30N 41°20' E 002°09'0 0.0
2018-Apr-05 05:00N 41°20' E 002°09'0 0.0
2018-Apr-05 04:30N 41°20' E 002°09'0 0.0
2018-Apr-05 04:00N 41°20' E 002°09'0 0.0
2018-Apr-05 03:24N 41°20' E 002°09'0 0.0
2018-Apr-05 03:00N 41°20' E 002°09'0 0.0
2018-Apr-05 02:30N 41°20' E 002°09'0 0.0
2018-Apr-05 02:00N 41°20' E 002°09'0 0.0
2018-Apr-05 01:30N 41°20' E 002°09'0 0.0
2018-Apr-05 01:00N 41°20' E 002°09'0 0.0
2018-Apr-05 00:30N 41°20' E 002°09'0 0.0
2018-Apr-05 00:00N 41°20' E 002°09'0 0.0
2018-Apr-04 23:30N 41°20' E 002°09'0 0.0
2018-Apr-04 23:00N 41°20' E 002°09'0 0.0
2018-Apr-04 22:30N 41°20' E 002°09'0 0.0
2018-Apr-04 22:00N 41°20' E 002°09'0 0.0
2018-Apr-04 21:30N 41°20' E 002°09'0 0.0
2018-Apr-04 21:00N 41°20' E 002°09'0 0.0
2018-Apr-04 20:30N 41°20' E 002°09'0 0.0
2018-Apr-04 20:00N 41°20' E 002°09'0 0.0
2018-Apr-04 19:30N 41°20' E 002°09'0 0.0
2018-Apr-04 19:00N 41°20' E 002°09'0 0.0
2018-Apr-04 18:30N 41°20' E 002°09'0 0.0
2018-Apr-04 17:57N 41°20' E 002°09'0 0.0
2018-Apr-04 17:30N 41°20' E 002°09'0 0.0
2018-Apr-04 17:00N 41°20' E 002°09'0 0.0
2018-Apr-04 16:26N 41°20' E 002°09'2 4.1
2018-Apr-04 16:00N 41°19' E 002°10'3 0.6
2018-Apr-04 09:55N 41°22' E 002°11'0 0.0
2018-Apr-04 09:25N 41°22' E 002°11'0 0.7
2018-Apr-04 09:00N 41°22' E 002°11'3 6.0
2018-Apr-04 08:30N 41°19' E 002°10'2 3.1
2018-Apr-04 08:00N 41°20' E 002°09'0 0.0
2018-Apr-04 07:30N 41°20' E 002°09'0 0.0
2018-Apr-04 07:00N 41°20' E 002°09'0 0.0
2018-Apr-04 06:30N 41°20' E 002°09'0 0.0
2018-Apr-04 06:00N 41°20' E 002°09'0 0.0
2018-Apr-04 05:30N 41°20' E 002°09'0 0.0
2018-Apr-04 05:00N 41°20' E 002°09'0 0.0
2018-Apr-04 04:30N 41°20' E 002°09'0 0.0
2018-Apr-04 04:00N 41°20' E 002°09'1 1.9
2018-Apr-04 03:28N 41°21' E 002°10'0 0.0
2018-Apr-04 02:58N 41°21' E 002°10'0 0.0
2018-Apr-04 02:28N 41°21' E 002°10'0 0.0
2018-Apr-04 01:58N 41°21' E 002°10'0 0.0
2018-Apr-04 01:25N 41°21' E 002°10'0 0.0
2018-Apr-04 00:58N 41°21' E 002°10'0 0.0
2018-Apr-04 00:28N 41°21' E 002°10'0 0.0
2018-Apr-03 23:58N 41°21' E 002°10'0 0.2
2018-Apr-03 23:30N 41°21' E 002°10'1 2.1
2018-Apr-03 23:00N 41°20' E 002°09'0 0.0
2018-Apr-03 22:31N 41°20' E 002°09'0 0.0
2018-Apr-03 22:00N 41°20' E 002°09'0 0.0
2018-Apr-03 21:30N 41°20' E 002°09'0 0.0
2018-Apr-03 21:01N 41°20' E 002°09'0 0.0
2018-Apr-03 20:30N 41°20' E 002°09'0 0.0
2018-Apr-03 19:54N 41°20' E 002°09'0 0.0
2018-Apr-03 19:27N 41°20' E 002°09'0 0.0
2018-Apr-03 18:58N 41°20' E 002°09'0 0.0
2018-Apr-03 18:31N 41°20' E 002°09'0 0.0
2018-Apr-03 18:01N 41°20' E 002°09'0 0.0
2018-Apr-03 17:30N 41°20' E 002°09'0 0.0
2018-Apr-03 17:00N 41°20' E 002°09'0 0.0
2018-Apr-03 16:30N 41°20' E 002°09'0 0.0
2018-Apr-03 16:00N 41°20' E 002°09'0 0.0
2018-Apr-03 15:31N 41°20' E 002°09'0 0.0
2018-Apr-03 15:00N 41°20' E 002°09'0 0.0
2018-Apr-03 14:31N 41°20' E 002°09'0 0.0
2018-Apr-03 14:01N 41°20' E 002°09'0 0.0
2018-Apr-03 13:31N 41°20' E 002°09'0 0.0
2018-Apr-03 13:00N 41°20' E 002°09'0 0.0
2018-Apr-03 12:30N 41°20' E 002°09'0 0.0
2018-Apr-03 12:00N 41°20' E 002°09'0 0.0
2018-Apr-03 11:31N 41°20' E 002°09'0 0.0
2018-Apr-03 11:01N 41°20' E 002°09'0 0.0
2018-Apr-03 10:31N 41°20' E 002°09'0 0.0
2018-Apr-03 10:00N 41°20' E 002°09'0 0.0
2018-Apr-03 09:31N 41°20' E 002°09'0 0.0
2018-Apr-03 08:57N 41°20' E 002°09'0 0.0
2018-Apr-03 08:31N 41°20' E 002°09'0 0.0
2018-Apr-03 08:01N 41°20' E 002°09'0 0.0
2018-Apr-03 07:31N 41°20' E 002°09'0 0.0
2018-Apr-03 07:00N 41°20' E 002°09'0 0.0
2018-Apr-03 06:28N 41°20' E 002°09'0 0.0
2018-Apr-03 06:01N 41°20' E 002°09'0 0.0
2018-Apr-03 05:31N 41°20' E 002°09'0 0.0
2018-Apr-03 05:00N 41°20' E 002°09'0 0.0
2018-Apr-03 04:30N 41°20' E 002°09'0 0.0
2018-Apr-03 04:01N 41°20' E 002°09'0 0.0
2018-Apr-03 03:31N 41°20' E 002°09'0 0.0
2018-Apr-03 03:01N 41°20' E 002°09'0 0.0
2018-Apr-03 02:30N 41°20' E 002°09'0 0.0
2018-Apr-03 02:00N 41°20' E 002°09'0 0.0
2018-Apr-03 01:30N 41°20' E 002°09'0 0.0
2018-Apr-03 01:01N 41°20' E 002°09'0 0.0
2018-Apr-03 00:30N 41°20' E 002°09'0 0.0
2018-Apr-03 00:01N 41°20' E 002°09'0 0.0
2018-Apr-02 23:30N 41°20' E 002°09'0 0.0
2018-Apr-02 23:00N 41°20' E 002°09'0 0.0
2018-Apr-02 22:31N 41°20' E 002°09'0 0.0
2018-Apr-02 22:00N 41°20' E 002°09'0 0.0
2018-Apr-02 21:27N 41°20' E 002°09'0 0.0
2018-Apr-02 21:01N 41°20' E 002°09'0 0.0
2018-Apr-02 20:30N 41°20' E 002°09'0 0.0
2018-Apr-02 20:01N 41°20' E 002°09'0 0.0
2018-Apr-02 19:31N 41°20' E 002°09'0 0.0
2018-Apr-02 19:00N 41°20' E 002°09'0 0.0
2018-Apr-02 18:31N 41°20' E 002°09'0 0.0
2018-Apr-02 18:00N 41°20' E 002°09'0 0.0
2018-Apr-02 17:30N 41°20' E 002°09'0 0.0
2018-Apr-02 17:00N 41°20' E 002°09'0 0.0
2018-Apr-02 16:31N 41°20' E 002°09'0 0.0
2018-Apr-02 16:00N 41°20' E 002°09'0 0.0
2018-Apr-02 15:27N 41°20' E 002°09'0 0.0
2018-Apr-02 15:01N 41°20' E 002°09'0 0.0
2018-Apr-02 14:30N 41°20' E 002°09'0 0.0
2018-Apr-02 14:01N 41°20' E 002°09'0 0.0
2018-Apr-02 13:31N 41°20' E 002°09'0 0.0
2018-Apr-02 13:00N 41°20' E 002°09'0 0.0
2018-Apr-02 12:30N 41°20' E 002°09'0 0.0
2018-Apr-02 12:00N 41°20' E 002°09'2 3.4
2018-Apr-02 11:29N 41°22' E 002°10'0 0.0
2018-Apr-02 10:47N 41°22' E 002°10'0 0.0
2018-Apr-02 10:29N 41°22' E 002°10'0 0.0
2018-Apr-02 09:59N 41°22' E 002°10'0 0.0
2018-Apr-02 09:26N 41°22' E 002°10'0 0.0
2018-Apr-02 08:59N 41°22' E 002°10'0 0.0
2018-Apr-02 08:29N 41°22' E 002°10'0 0.0
2018-Apr-02 07:41N 41°22' E 002°10'0 0.1
2018-Apr-02 07:29N 41°22' E 002°10'0 0.0
2018-Apr-02 06:59N 41°22' E 002°10'0 0.0
2018-Apr-02 06:29N 41°22' E 002°10'0 0.1
2018-Apr-02 05:59N 41°22' E 002°11'1 1.5
2018-Apr-02 05:30N 41°21' E 002°10'1 2.3
2018-Apr-02 05:00N 41°20' E 002°09'0 0.0
2018-Apr-02 04:30N 41°20' E 002°09'0 0.0
2018-Apr-02 04:00N 41°20' E 002°09'0 0.0
2018-Apr-02 03:30N 41°20' E 002°09'0 0.0
2018-Apr-02 03:00N 41°20' E 002°09'0 0.0
2018-Apr-02 02:30N 41°20' E 002°09'0 0.0
2018-Apr-02 02:00N 41°20' E 002°09'0 0.0
2018-Apr-02 01:30N 41°20' E 002°09'0 0.0
2018-Apr-02 01:00N 41°20' E 002°09'0 0.0
2018-Apr-02 00:30N 41°20' E 002°09'0 0.0
2018-Apr-01 23:57N 41°20' E 002°09'0 0.0
2018-Apr-01 23:30N 41°20' E 002°09'0 0.0
2018-Apr-01 23:00N 41°20' E 002°09'0 0.0
2018-Apr-01 22:30N 41°20' E 002°09'0 0.0
2018-Apr-01 22:00N 41°20' E 002°09'0 0.0
2018-Apr-01 21:30N 41°20' E 002°09'0 0.0
2018-Apr-01 21:00N 41°20' E 002°09'0 0.0
2018-Apr-01 20:30N 41°20' E 002°09'0 0.0
2018-Apr-01 20:00N 41°20' E 002°09'0 0.0
2018-Apr-01 19:27N 41°20' E 002°09'0 0.0
2018-Apr-01 19:00N 41°20' E 002°09'0 0.0
2018-Apr-01 18:30N 41°20' E 002°09'0 0.0
2018-Apr-01 18:00N 41°20' E 002°09'0 0.0
2018-Apr-01 17:30N 41°20' E 002°09'0 0.0
2018-Apr-01 17:00N 41°20' E 002°09'  
Track history (hours):
 
Tides and Currents Weather Stations Pressure Air Temp Water Temp Dewpoint Dewpoint Depression Visibility Wind Speed Wind Dir Waves Ship Positions

Patagonia 100

Last reported at 2018-Apr-11 16:39 UTC. Time now 2018-Jun-19 02:52 UTC.
Position N 37°28' W 001°03'.
Warning: this ship's position is months out of date.

Length 80 m; draft 5.4 m.

Type: Tanker. MMSI: 236659000.

Date/timePositionNaut miles runAvg speedWind from/ knotsBaromVisibWave heightAir tempDewpointWater temp
2018-Apr-11 16:39N 37°28' W 001°03'1 3.5
2018-Apr-11 16:28N 37°28' W 001°02'2 3.5
2018-Apr-11 16:00N 37°29' W 000°60'2 3.4
2018-Apr-11 15:30N 37°30' W 000°58'2 3.3
2018-Apr-11 15:00N 37°30' W 000°56'1 2.9
2018-Apr-11 14:30N 37°30' W 000°54'2 3.0
2018-Apr-11 14:00N 37°30' W 000°52'2 3.0
2018-Apr-11 13:30N 37°31' W 000°50'1 2.8
2018-Apr-11 13:00N 37°31' W 000°49'1 2.8
2018-Apr-11 12:30N 37°31' W 000°47'1 2.9
2018-Apr-11 12:00N 37°32' W 000°45'1 3.0
2018-Apr-11 11:30N 37°32' W 000°43'2 3.2
2018-Apr-11 11:00N 37°32' W 000°41'2 3.7
2018-Apr-11 10:24N 37°32' W 000°39'2 3.9
2018-Apr-11 10:00N 37°33' W 000°37'2 3.6
2018-Apr-11 09:29N 37°34' W 000°35'2 3.6
2018-Apr-11 08:59N 37°36' W 000°34'2 4.2
2018-Apr-11 08:30N 37°37' W 000°33'3 5.8
2018-Apr-11 07:59N 37°40' W 000°31'3 7.0
2018-Apr-11 07:30N 37°43' W 000°29'4 6.8
2018-Apr-11 06:57N 37°47' W 000°28'3 7.1
2018-Apr-11 06:30N 37°50' W 000°26'4 7.5
2018-Apr-11 06:00N 37°53' W 000°24'4 7.8
2018-Apr-11 05:30N 37°57' W 000°23'4 7.8
2018-Apr-11 05:00N 38°00' W 000°21'215 5.8
2018-Apr-09 15:48N 41°05' E 002°03'3 8.3
2018-Apr-09 15:30N 41°07' E 002°04'4 8.6
2018-Apr-09 15:01N 41°11' E 002°07'5 9.0
2018-Apr-09 14:31N 41°15' E 002°10'4 8.1
2018-Apr-09 14:01N 41°19' E 002°10'2 3.2
2018-Apr-09 13:30N 41°21' E 002°10'0 0.0
2018-Apr-09 12:58N 41°21' E 002°10'0 0.0
2018-Apr-09 10:40N 41°21' E 002°10'0 0.0
2018-Apr-09 10:22N 41°21' E 002°10'0 0.0
2018-Apr-09 09:49N 41°21' E 002°10'0 0.0
2018-Apr-09 09:19N 41°21' E 002°10'0 1.3
2018-Apr-09 09:00N 41°20' E 002°09'0 0.2
2018-Apr-09 08:29N 41°20' E 002°09'0 0.0
2018-Apr-09 07:59N 41°20' E 002°09'0 0.0
2018-Apr-09 07:29N 41°20' E 002°09'0 0.0
2018-Apr-09 06:59N 41°20' E 002°09'0 0.0
2018-Apr-09 06:29N 41°20' E 002°09'0 0.0
2018-Apr-09 05:59N 41°20' E 002°09'0 0.0
2018-Apr-09 05:29N 41°20' E 002°09'0 0.0
2018-Apr-09 04:59N 41°20' E 002°09'0 0.0
2018-Apr-09 04:29N 41°20' E 002°09'0 0.0
2018-Apr-09 03:59N 41°20' E 002°09'0 0.0
2018-Apr-09 03:29N 41°20' E 002°09'0 0.0
2018-Apr-09 02:59N 41°20' E 002°09'0 0.0
2018-Apr-09 02:29N 41°20' E 002°09'0 0.0
2018-Apr-09 01:59N 41°20' E 002°09'0 0.0
2018-Apr-09 01:29N 41°20' E 002°09'0 0.0
2018-Apr-09 00:59N 41°20' E 002°09'0 0.0
2018-Apr-09 00:29N 41°20' E 002°09'0 0.0
2018-Apr-08 23:59N 41°20' E 002°09'0 0.0
2018-Apr-08 23:29N 41°20' E 002°09'0 0.0
2018-Apr-08 22:59N 41°20' E 002°09'0 0.0
2018-Apr-08 22:29N 41°20' E 002°09'0 0.0
2018-Apr-08 21:59N 41°20' E 002°09'0 0.0
2018-Apr-08 21:29N 41°20' E 002°09'0 0.0
2018-Apr-08 20:59N 41°20' E 002°09'0 0.0
2018-Apr-08 20:29N 41°20' E 002°09'0 0.0
2018-Apr-08 19:59N 41°20' E 002°09'0 0.0
2018-Apr-08 19:29N 41°20' E 002°09'0 0.0
2018-Apr-08 18:59N 41°20' E 002°09'0 0.0
2018-Apr-08 18:29N 41°20' E 002°09'0 0.0
2018-Apr-08 17:59N 41°20' E 002°09'0 0.0
2018-Apr-08 17:29N 41°20' E 002°09'0 0.0
2018-Apr-08 16:59N 41°20' E 002°09'0 0.0
2018-Apr-08 16:29N 41°20' E 002°09'0 0.0
2018-Apr-08 15:56N 41°20' E 002°09'0 0.0
2018-Apr-08 15:29N 41°20' E 002°09'0 0.0
2018-Apr-08 14:59N 41°20' E 002°09'0 0.0
2018-Apr-08 14:29N 41°20' E 002°09'0 0.0
2018-Apr-08 13:59N 41°20' E 002°09'0 0.0
2018-Apr-08 13:29N 41°20' E 002°09'0 0.0
2018-Apr-08 12:59N 41°20' E 002°09'0 0.0
2018-Apr-08 12:29N 41°20' E 002°09'0 0.0
2018-Apr-08 11:59N 41°20' E 002°09'0 0.0
2018-Apr-08 11:29N 41°20' E 002°09'0 0.0
2018-Apr-08 10:59N 41°20' E 002°09'0 0.0
2018-Apr-08 10:29N 41°20' E 002°09'0 0.0
2018-Apr-08 09:59N 41°20' E 002°09'0 0.0
2018-Apr-08 09:29N 41°20' E 002°09'0 0.0
2018-Apr-08 08:59N 41°20' E 002°09'0 0.0
2018-Apr-08 08:29N 41°20' E 002°09'0 0.0
2018-Apr-08 07:59N 41°20' E 002°09'0 0.0
2018-Apr-08 07:29N 41°20' E 002°09'0 0.0
2018-Apr-08 06:59N 41°20' E 002°09'0 0.0
2018-Apr-08 06:29N 41°20' E 002°09'0 0.0
2018-Apr-08 05:59N 41°20' E 002°09'0 0.0
2018-Apr-08 05:29N 41°20' E 002°09'0 0.0
2018-Apr-08 04:59N 41°20' E 002°09'0 0.0
2018-Apr-08 04:29N 41°20' E 002°09'0 0.0
2018-Apr-08 03:59N 41°20' E 002°09'0 0.0
2018-Apr-08 03:29N 41°20' E 002°09'0 0.0
2018-Apr-08 02:59N 41°20' E 002°09'0 0.0
2018-Apr-08 02:29N 41°20' E 002°09'0 0.0
2018-Apr-08 01:59N 41°20' E 002°09'0 0.0
2018-Apr-08 01:29N 41°20' E 002°09'0 0.0
2018-Apr-08 00:59N 41°20' E 002°09'0 0.0
2018-Apr-08 00:29N 41°20' E 002°09'0 0.0
2018-Apr-07 23:59N 41°20' E 002°09'0 0.0
2018-Apr-07 23:29N 41°20' E 002°09'0 0.0
2018-Apr-07 22:59N 41°20' E 002°09'0 0.0
2018-Apr-07 22:29N 41°20' E 002°09'0 0.0
2018-Apr-07 21:59N 41°20' E 002°09'0 0.0
2018-Apr-07 21:29N 41°20' E 002°09'0 0.0
2018-Apr-07 20:59N 41°20' E 002°09'0 0.0
2018-Apr-07 20:29N 41°20' E 002°09'0 0.0
2018-Apr-07 19:59N 41°20' E 002°09'0 0.0
2018-Apr-07 19:29N 41°20' E 002°09'0 0.0
2018-Apr-07 18:59N 41°20' E 002°09'0 0.0
2018-Apr-07 18:29N 41°20' E 002°09'0 0.0
2018-Apr-07 17:59N 41°20' E 002°09'0 0.0
2018-Apr-07 17:02N 41°20' E 002°09'0 0.0
2018-Apr-07 16:59N 41°20' E 002°09'0 0.0
2018-Apr-07 16:29N 41°20' E 002°09'0 0.0
2018-Apr-07 15:59N 41°20' E 002°09'0 0.0
2018-Apr-07 15:29N 41°20' E 002°09'0 0.0
2018-Apr-07 14:59N 41°20' E 002°09'0 0.0
2018-Apr-07 14:29N 41°20' E 002°09'0 0.0
2018-Apr-07 13:59N 41°20' E 002°09'0 0.0
2018-Apr-07 13:29N 41°20' E 002°09'0 0.0
2018-Apr-07 12:59N 41°20' E 002°09'0 0.0
2018-Apr-07 12:29N 41°20' E 002°09'0 0.0
2018-Apr-07 11:59N 41°20' E 002°09'0 0.0
2018-Apr-07 11:29N 41°20' E 002°09'0 0.0
2018-Apr-07 10:59N 41°20' E 002°09'0 0.0
2018-Apr-07 10:29N 41°20' E 002°09'0 0.0
2018-Apr-07 09:59N 41°20' E 002°09'0 0.0
2018-Apr-07 09:29N 41°20' E 002°09'0 0.0
2018-Apr-07 08:59N 41°20' E 002°09'0 0.0
2018-Apr-07 08:29N 41°20' E 002°09'0 0.0
2018-Apr-07 07:59N 41°20' E 002°09'0 0.0
2018-Apr-07 07:29N 41°20' E 002°09'0 0.2
2018-Apr-07 06:59N 41°20' E 002°09'0 0.0
2018-Apr-07 06:29N 41°20' E 002°09'0 0.0
2018-Apr-07 05:59N 41°20' E 002°09'0 0.0
2018-Apr-07 05:29N 41°20' E 002°09'0 0.0
2018-Apr-07 04:59N 41°20' E 002°09'0 0.0
2018-Apr-07 04:29N 41°20' E 002°09'0 0.0
2018-Apr-07 03:59N 41°20' E 002°09'0 0.0
2018-Apr-07 03:29N 41°20' E 002°09'0 0.0
2018-Apr-07 02:56N 41°20' E 002°09'0 0.0
2018-Apr-07 02:29N 41°20' E 002°09'0 0.0
2018-Apr-07 01:59N 41°20' E 002°09'0 0.0
2018-Apr-07 01:29N 41°20' E 002°09'0 0.0
2018-Apr-07 00:59N 41°20' E 002°09'0 0.0
2018-Apr-07 00:26N 41°20' E 002°09'0 0.0
2018-Apr-06 23:59N 41°20' E 002°09'0 0.0
2018-Apr-06 23:29N 41°20' E 002°09'0 0.0
2018-Apr-06 22:59N 41°20' E 002°09'0 0.0
2018-Apr-06 22:29N 41°20' E 002°09'0 0.0
2018-Apr-06 21:56N 41°20' E 002°09'0 0.0
2018-Apr-06 21:29N 41°20' E 002°09'0 0.0
2018-Apr-06 20:56N 41°20' E 002°09'0 0.1
2018-Apr-06 20:29N 41°20' E 002°09'0 0.0
2018-Apr-06 19:59N 41°20' E 002°09'0 0.0
2018-Apr-06 19:29N 41°20' E 002°09'0 0.0
2018-Apr-06 18:59N 41°20' E 002°09'0 0.0
2018-Apr-06 18:29N 41°20' E 002°09'0 0.0
2018-Apr-06 17:59N 41°20' E 002°09'0 0.0
2018-Apr-06 17:29N 41°20' E 002°09'0 0.0
2018-Apr-06 16:59N 41°20' E 002°09'0 0.0
2018-Apr-06 16:29N 41°20' E 002°09'0 0.0
2018-Apr-06 15:59N 41°20' E 002°09'0 0.0
2018-Apr-06 15:29N 41°20' E 002°09'0 0.0
2018-Apr-06 14:59N 41°20' E 002°09'0 0.0
2018-Apr-06 14:29N 41°20' E 002°09'0 0.0
2018-Apr-06 13:56N 41°20' E 002°09'0 0.0
2018-Apr-06 13:29N 41°20' E 002°09'0 0.0
2018-Apr-06 12:59N 41°20' E 002°09'0 0.0
2018-Apr-06 12:29N 41°20' E 002°09'0 0.0
2018-Apr-06 11:59N 41°20' E 002°09'0 0.0
2018-Apr-06 11:29N 41°20' E 002°09'0 0.0
2018-Apr-06 10:59N 41°20' E 002°09'0 0.0
2018-Apr-06 10:29N 41°20' E 002°09'0 0.0
2018-Apr-06 09:59N 41°20' E 002°09'0 0.0
2018-Apr-06 09:29N 41°20' E 002°09'0 0.0
2018-Apr-06 08:59N 41°20' E 002°09'0 0.0
2018-Apr-06 08:29N 41°20' E 002°09'0 0.0
2018-Apr-06 07:59N 41°20' E 002°09'0 0.0
2018-Apr-06 07:29N 41°20' E 002°09'0 0.0
2018-Apr-06 06:59N 41°20' E 002°09'0 0.0
2018-Apr-06 06:29N 41°20' E 002°09'0 0.0
2018-Apr-06 05:59N 41°20' E 002°09'0 0.0
2018-Apr-06 05:29N 41°20' E 002°09'0 0.0
2018-Apr-06 04:59N 41°20' E 002°09'0 0.0
2018-Apr-06 04:29N 41°20' E 002°09'0 0.0
2018-Apr-06 03:59N 41°20' E 002°09'0 0.0
2018-Apr-06 03:29N 41°20' E 002°09'0 0.0
2018-Apr-06 02:59N 41°20' E 002°09'0 0.0
2018-Apr-06 02:29N 41°20' E 002°09'0 0.0
2018-Apr-06 01:59N 41°20' E 002°09'0 0.0
2018-Apr-06 01:29N 41°20' E 002°09'0 0.0
2018-Apr-06 00:59N 41°20' E 002°09'0 0.0
2018-Apr-06 00:29N 41°20' E 002°09'0 0.0
2018-Apr-05 23:59N 41°20' E 002°09'0 0.0
2018-Apr-05 23:29N 41°20' E 002°09'0 0.0
2018-Apr-05 22:59N 41°20' E 002°09'0 0.0
2018-Apr-05 22:29N 41°20' E 002°09'0 0.0
2018-Apr-05 21:59N 41°20' E 002°09'0 0.0
2018-Apr-05 21:29N 41°20' E 002°09'0 0.0
2018-Apr-05 20:59N 41°20' E 002°09'0 0.0
2018-Apr-05 20:29N 41°20' E 002°09'0 0.0
2018-Apr-05 19:59N 41°20' E 002°09'0 0.0
2018-Apr-05 19:29N 41°20' E 002°09'0 0.0
2018-Apr-05 18:59N 41°20' E 002°09'0 0.0
2018-Apr-05 18:29N 41°20' E 002°09'0 0.0
2018-Apr-05 17:59N 41°20' E 002°09'0 0.0
2018-Apr-05 17:29N 41°20' E 002°09'0 0.0
2018-Apr-05 16:59N 41°20' E 002°09'0 0.0
2018-Apr-05 16:29N 41°20' E 002°09'0 0.0
2018-Apr-05 15:59N 41°20' E 002°09'0 0.0
2018-Apr-05 15:29N 41°20' E 002°09'0 0.0
2018-Apr-05 14:59N 41°20' E 002°09'0 0.0
2018-Apr-05 14:29N 41°20' E 002°09'0 0.0
2018-Apr-05 13:59N 41°20' E 002°09'0 0.0
2018-Apr-05 13:29N 41°20' E 002°09'0 0.0
2018-Apr-05 12:59N 41°20' E 002°09'0 0.0
2018-Apr-05 12:29N 41°20' E 002°09'0 0.0
2018-Apr-05 11:59N 41°20' E 002°09'0 0.0
2018-Apr-05 11:29N 41°20' E 002°09'0 0.0
2018-Apr-05 10:59N 41°20' E 002°09'0 0.0
2018-Apr-05 10:30N 41°20' E 002°09'0 0.0
2018-Apr-05 10:00N 41°20' E 002°09'0 0.0
2018-Apr-05 09:30N 41°20' E 002°09'0 0.0
2018-Apr-05 09:00N 41°20' E 002°09'0 0.0
2018-Apr-05 08:30N 41°20' E 002°09'0 0.0
2018-Apr-05 08:00N 41°20' E 002°09'0 0.0
2018-Apr-05 07:30N 41°20' E 002°09'0 0.0
2018-Apr-05 07:00N 41°20' E 002°09'0 0.0
2018-Apr-05 06:30N 41°20' E 002°09'0 0.0
2018-Apr-05 06:00N 41°20' E 002°09'0 0.0
2018-Apr-05 05:30N 41°20' E 002°09'0 0.0
2018-Apr-05 05:00N 41°20' E 002°09'0 0.0
2018-Apr-05 04:30N 41°20' E 002°09'0 0.0
2018-Apr-05 04:00N 41°20' E 002°09'0 0.0
2018-Apr-05 03:24N 41°20' E 002°09'0 0.0
2018-Apr-05 03:00N 41°20' E 002°09'0 0.0
2018-Apr-05 02:30N 41°20' E 002°09'0 0.0
2018-Apr-05 02:00N 41°20' E 002°09'0 0.0
2018-Apr-05 01:30N 41°20' E 002°09'0 0.0
2018-Apr-05 01:00N 41°20' E 002°09'0 0.0
2018-Apr-05 00:30N 41°20' E 002°09'0 0.0
2018-Apr-05 00:00N 41°20' E 002°09'0 0.0
2018-Apr-04 23:30N 41°20' E 002°09'0 0.0
2018-Apr-04 23:00N 41°20' E 002°09'0 0.0
2018-Apr-04 22:30N 41°20' E 002°09'0 0.0
2018-Apr-04 22:00N 41°20' E 002°09'0 0.0
2018-Apr-04 21:30N 41°20' E 002°09'0 0.0
2018-Apr-04 21:00N 41°20' E 002°09'0 0.0
2018-Apr-04 20:30N 41°20' E 002°09'0 0.0
2018-Apr-04 20:00N 41°20' E 002°09'0 0.0
2018-Apr-04 19:30N 41°20' E 002°09'0 0.0
2018-Apr-04 19:00N 41°20' E 002°09'0 0.0
2018-Apr-04 18:30N 41°20' E 002°09'0 0.0
2018-Apr-04 17:57N 41°20' E 002°09'0 0.0
2018-Apr-04 17:30N 41°20' E 002°09'0 0.0
2018-Apr-04 17:00N 41°20' E 002°09'0 0.0
2018-Apr-04 16:26N 41°20' E 002°09'2 4.1
2018-Apr-04 16:00N 41°19' E 002°10'3 0.6
2018-Apr-04 09:55N 41°22' E 002°11'0 0.0
2018-Apr-04 09:25N 41°22' E 002°11'0 0.7
2018-Apr-04 09:00N 41°22' E 002°11'3 6.0
2018-Apr-04 08:30N 41°19' E 002°10'2 3.1
2018-Apr-04 08:00N 41°20' E 002°09'0 0.0
2018-Apr-04 07:30N 41°20' E 002°09'0 0.0
2018-Apr-04 07:00N 41°20' E 002°09'0 0.0
2018-Apr-04 06:30N 41°20' E 002°09'0 0.0
2018-Apr-04 06:00N 41°20' E 002°09'0 0.0
2018-Apr-04 05:30N 41°20' E 002°09'0 0.0
2018-Apr-04 05:00N 41°20' E 002°09'0 0.0
2018-Apr-04 04:30N 41°20' E 002°09'0 0.0
2018-Apr-04 04:00N 41°20' E 002°09'1 1.9
2018-Apr-04 03:28N 41°21' E 002°10'0 0.0
2018-Apr-04 02:58N 41°21' E 002°10'0 0.0
2018-Apr-04 02:28N 41°21' E 002°10'0 0.0
2018-Apr-04 01:58N 41°21' E 002°10'0 0.0
2018-Apr-04 01:25N 41°21' E 002°10'0 0.0
2018-Apr-04 00:58N 41°21' E 002°10'0 0.0
2018-Apr-04 00:28N 41°21' E 002°10'0 0.0
2018-Apr-03 23:58N 41°21' E 002°10'0 0.2
2018-Apr-03 23:30N 41°21' E 002°10'1 2.1
2018-Apr-03 23:00N 41°20' E 002°09'0 0.0
2018-Apr-03 22:31N 41°20' E 002°09'0 0.0
2018-Apr-03 22:00N 41°20' E 002°09'0 0.0
2018-Apr-03 21:30N 41°20' E 002°09'0 0.0
2018-Apr-03 21:01N 41°20' E 002°09'0 0.0
2018-Apr-03 20:30N 41°20' E 002°09'0 0.0
2018-Apr-03 19:54N 41°20' E 002°09'0 0.0
2018-Apr-03 19:27N 41°20' E 002°09'0 0.0
2018-Apr-03 18:58N 41°20' E 002°09'0 0.0
2018-Apr-03 18:31N 41°20' E 002°09'0 0.0
2018-Apr-03 18:01N 41°20' E 002°09'0 0.0
2018-Apr-03 17:30N 41°20' E 002°09'0 0.0
2018-Apr-03 17:00N 41°20' E 002°09'0 0.0
2018-Apr-03 16:30N 41°20' E 002°09'0 0.0
2018-Apr-03 16:00N 41°20' E 002°09'0 0.0
2018-Apr-03 15:31N 41°20' E 002°09'0 0.0
2018-Apr-03 15:00N 41°20' E 002°09'0 0.0
2018-Apr-03 14:31N 41°20' E 002°09'0 0.0
2018-Apr-03 14:01N 41°20' E 002°09'0 0.0
2018-Apr-03 13:31N 41°20' E 002°09'0 0.0
2018-Apr-03 13:00N 41°20' E 002°09'0 0.0
2018-Apr-03 12:30N 41°20' E 002°09'0 0.0
2018-Apr-03 12:00N 41°20' E 002°09'0 0.0
2018-Apr-03 11:31N 41°20' E 002°09'0 0.0
2018-Apr-03 11:01N 41°20' E 002°09'0 0.0
2018-Apr-03 10:31N 41°20' E 002°09'0 0.0
2018-Apr-03 10:00N 41°20' E 002°09'0 0.0
2018-Apr-03 09:31N 41°20' E 002°09'0 0.0
2018-Apr-03 08:57N 41°20' E 002°09'0 0.0
2018-Apr-03 08:31N 41°20' E 002°09'0 0.0
2018-Apr-03 08:01N 41°20' E 002°09'0 0.0
2018-Apr-03 07:31N 41°20' E 002°09'0 0.0
2018-Apr-03 07:00N 41°20' E 002°09'0 0.0
2018-Apr-03 06:28N 41°20' E 002°09'0 0.0
2018-Apr-03 06:01N 41°20' E 002°09'0 0.0
2018-Apr-03 05:31N 41°20' E 002°09'0 0.0
2018-Apr-03 05:00N 41°20' E 002°09'0 0.0
2018-Apr-03 04:30N 41°20' E 002°09'0 0.0
2018-Apr-03 04:01N 41°20' E 002°09'0 0.0
2018-Apr-03 03:31N 41°20' E 002°09'0 0.0
2018-Apr-03 03:01N 41°20' E 002°09'0 0.0
2018-Apr-03 02:30N 41°20' E 002°09'0 0.0
2018-Apr-03 02:00N 41°20' E 002°09'0 0.0
2018-Apr-03 01:30N 41°20' E 002°09'0 0.0
2018-Apr-03 01:01N 41°20' E 002°09'0 0.0
2018-Apr-03 00:30N 41°20' E 002°09'0 0.0
2018-Apr-03 00:01N 41°20' E 002°09'0 0.0
2018-Apr-02 23:30N 41°20' E 002°09'0 0.0
2018-Apr-02 23:00N 41°20' E 002°09'0 0.0
2018-Apr-02 22:31N 41°20' E 002°09'0 0.0
2018-Apr-02 22:00N 41°20' E 002°09'0 0.0
2018-Apr-02 21:27N 41°20' E 002°09'0 0.0
2018-Apr-02 21:01N 41°20' E 002°09'0 0.0
2018-Apr-02 20:30N 41°20' E 002°09'0 0.0
2018-Apr-02 20:01N 41°20' E 002°09'0 0.0
2018-Apr-02 19:31N 41°20' E 002°09'0 0.0
2018-Apr-02 19:00N 41°20' E 002°09'0 0.0
2018-Apr-02 18:31N 41°20' E 002°09'0 0.0
2018-Apr-02 18:00N 41°20' E 002°09'0 0.0
2018-Apr-02 17:30N 41°20' E 002°09'0 0.0
2018-Apr-02 17:00N 41°20' E 002°09'0 0.0
2018-Apr-02 16:31N 41°20' E 002°09'0 0.0
2018-Apr-02 16:00N 41°20' E 002°09'0 0.0
2018-Apr-02 15:27N 41°20' E 002°09'0 0.0
2018-Apr-02 15:01N 41°20' E 002°09'0 0.0
2018-Apr-02 14:30N 41°20' E 002°09'0 0.0
2018-Apr-02 14:01N 41°20' E 002°09'0 0.0
2018-Apr-02 13:31N 41°20' E 002°09'0 0.0
2018-Apr-02 13:00N 41°20' E 002°09'0 0.0
2018-Apr-02 12:30N 41°20' E 002°09'0 0.0
2018-Apr-02 12:00N 41°20' E 002°09'2 3.4
2018-Apr-02 11:29N 41°22' E 002°10'0 0.0
2018-Apr-02 10:47N 41°22' E 002°10'0 0.0
2018-Apr-02 10:29N 41°22' E 002°10'0 0.0
2018-Apr-02 09:59N 41°22' E 002°10'0 0.0
2018-Apr-02 09:26N 41°22' E 002°10'0 0.0
2018-Apr-02 08:59N 41°22' E 002°10'0 0.0
2018-Apr-02 08:29N 41°22' E 002°10'0 0.0
2018-Apr-02 07:41N 41°22' E 002°10'0 0.1
2018-Apr-02 07:29N 41°22' E 002°10'0 0.0
2018-Apr-02 06:59N 41°22' E 002°10'0 0.0
2018-Apr-02 06:29N 41°22' E 002°10'0 0.1
2018-Apr-02 05:59N 41°22' E 002°11'1 1.5
2018-Apr-02 05:30N 41°21' E 002°10'1 2.3
2018-Apr-02 05:00N 41°20' E 002°09'0 0.0
2018-Apr-02 04:30N 41°20' E 002°09'0 0.0
2018-Apr-02 04:00N 41°20' E 002°09'0 0.0
2018-Apr-02 03:30N 41°20' E 002°09'0 0.0
2018-Apr-02 03:00N 41°20' E 002°09'0 0.0
2018-Apr-02 02:30N 41°20' E 002°09'0 0.0
2018-Apr-02 02:00N 41°20' E 002°09'0 0.0
2018-Apr-02 01:30N 41°20' E 002°09'0 0.0
2018-Apr-02 01:00N 41°20' E 002°09'0 0.0
2018-Apr-02 00:30N 41°20' E 002°09'0 0.0
2018-Apr-01 23:57N 41°20' E 002°09'0 0.0
2018-Apr-01 23:30N 41°20' E 002°09'0 0.0
2018-Apr-01 23:00N 41°20' E 002°09'0 0.0
2018-Apr-01 22:30N 41°20' E 002°09'0 0.0
2018-Apr-01 22:00N 41°20' E 002°09'0 0.0
2018-Apr-01 21:30N 41°20' E 002°09'0 0.0
2018-Apr-01 21:00N 41°20' E 002°09'0 0.0
2018-Apr-01 20:30N 41°20' E 002°09'0 0.0
2018-Apr-01 20:00N 41°20' E 002°09'0 0.0
2018-Apr-01 19:27N 41°20' E 002°09'0 0.0
2018-Apr-01 19:00N 41°20' E 002°09'0 0.0
2018-Apr-01 18:30N 41°20' E 002°09'0 0.0
2018-Apr-01 18:00N 41°20' E 002°09'0 0.0
2018-Apr-01 17:30N 41°20' E 002°09'0 0.0
2018-Apr-01 17:00N 41°20' E 002°09'  

Dump ship's entire track history